sensor_id;sensor_type;location;lat;lon;timestamp;P1;durP1;ratioP1;P2;durP2;ratioP2
49812;SDS011;35706;52.100;5.056;2023-08-24T00:00:41;1.60;;;0.32;;
49812;SDS011;35706;52.100;5.056;2023-08-24T00:01:42;4.45;;;0.40;;
49812;SDS011;35706;52.100;5.056;2023-08-24T00:02:42;2.50;;;0.40;;
49812;SDS011;35706;52.100;5.056;2023-08-24T00:03:47;1.73;;;0.30;;
49812;SDS011;35706;52.100;5.056;2023-08-24T00:04:48;2.22;;;0.40;;
49812;SDS011;35706;52.100;5.056;2023-08-24T00:05:48;3.80;;;0.40;;
49812;SDS011;35706;52.100;5.056;2023-08-24T00:06:49;1.10;;;0.40;;
49812;SDS011;35706;52.100;5.056;2023-08-24T00:07:49;1.48;;;0.40;;
49812;SDS011;35706;52.100;5.056;2023-08-24T00:08:51;1.58;;;0.40;;
49812;SDS011;35706;52.100;5.056;2023-08-24T00:09:52;2.10;;;0.40;;
49812;SDS011;35706;52.100;5.056;2023-08-24T00:10:53;3.05;;;0.40;;
49812;SDS011;35706;52.100;5.056;2023-08-24T00:11:53;2.47;;;0.40;;
49812;SDS011;35706;52.100;5.056;2023-08-24T00:12:53;3.25;;;0.50;;
49812;SDS011;35706;52.100;5.056;2023-08-24T00:13:54;1.23;;;0.40;;
49812;SDS011;35706;52.100;5.056;2023-08-24T00:14:54;3.33;;;0.40;;
49812;SDS011;35706;52.100;5.056;2023-08-24T00:15:54;3.40;;;0.50;;
49812;SDS011;35706;52.100;5.056;2023-08-24T00:16:55;3.47;;;0.40;;
49812;SDS011;35706;52.100;5.056;2023-08-24T00:17:55;2.35;;;0.38;;
49812;SDS011;35706;52.100;5.056;2023-08-24T00:18:56;1.55;;;0.30;;
49812;SDS011;35706;52.100;5.056;2023-08-24T00:19:56;2.47;;;0.40;;
49812;SDS011;35706;52.100;5.056;2023-08-24T00:20:57;1.13;;;0.60;;
49812;SDS011;35706;52.100;5.056;2023-08-24T00:21:57;2.75;;;0.40;;
49812;SDS011;35706;52.100;5.056;2023-08-24T00:22:57;1.25;;;0.40;;
49812;SDS011;35706;52.100;5.056;2023-08-24T00:23:58;3.38;;;0.45;;
49812;SDS011;35706;52.100;5.056;2023-08-24T00:24:59;1.35;;;0.35;;
49812;SDS011;35706;52.100;5.056;2023-08-24T00:26:00;2.40;;;0.30;;
49812;SDS011;35706;52.100;5.056;2023-08-24T00:27:00;0.98;;;0.38;;
49812;SDS011;35706;52.100;5.056;2023-08-24T00:28:00;1.58;;;0.40;;
49812;SDS011;35706;52.100;5.056;2023-08-24T00:29:01;2.08;;;0.30;;
49812;SDS011;35706;52.100;5.056;2023-08-24T00:30:02;2.30;;;0.35;;
49812;SDS011;35706;52.100;5.056;2023-08-24T00:31:09;5.05;;;0.47;;
49812;SDS011;35706;52.100;5.056;2023-08-24T00:32:09;1.55;;;0.40;;
49812;SDS011;35706;52.100;5.056;2023-08-24T00:33:10;2.72;;;0.30;;
49812;SDS011;35706;52.100;5.056;2023-08-24T00:34:10;1.95;;;0.30;;
49812;SDS011;35706;52.100;5.056;2023-08-24T00:35:10;2.92;;;0.40;;
49812;SDS011;35706;52.100;5.056;2023-08-24T00:36:11;0.77;;;0.40;;
49812;SDS011;35706;52.100;5.056;2023-08-24T00:37:11;2.70;;;0.30;;
49812;SDS011;35706;52.100;5.056;2023-08-24T00:38:12;1.90;;;0.40;;
49812;SDS011;35706;52.100;5.056;2023-08-24T00:39:12;2.67;;;0.38;;
49812;SDS011;35706;52.100;5.056;2023-08-24T00:40:12;1.67;;;0.30;;
49812;SDS011;35706;52.100;5.056;2023-08-24T00:41:13;1.60;;;0.35;;
49812;SDS011;35706;52.100;5.056;2023-08-24T00:42:13;3.13;;;0.40;;
49812;SDS011;35706;52.100;5.056;2023-08-24T00:43:15;2.28;;;0.40;;
49812;SDS011;35706;52.100;5.056;2023-08-24T00:44:15;2.58;;;0.40;;
49812;SDS011;35706;52.100;5.056;2023-08-24T00:45:16;1.42;;;0.45;;
49812;SDS011;35706;52.100;5.056;2023-08-24T00:46:17;1.75;;;0.30;;
49812;SDS011;35706;52.100;5.056;2023-08-24T00:47:18;1.55;;;0.40;;
49812;SDS011;35706;52.100;5.056;2023-08-24T00:48:19;2.28;;;0.30;;
49812;SDS011;35706;52.100;5.056;2023-08-24T00:49:21;2.17;;;0.40;;
49812;SDS011;35706;52.100;5.056;2023-08-24T00:50:22;2.55;;;0.30;;
49812;SDS011;35706;52.100;5.056;2023-08-24T00:51:23;1.85;;;0.40;;
49812;SDS011;35706;52.100;5.056;2023-08-24T00:52:24;1.00;;;0.30;;
49812;SDS011;35706;52.100;5.056;2023-08-24T00:53:29;1.35;;;0.30;;
49812;SDS011;35706;52.100;5.056;2023-08-24T00:54:30;2.00;;;0.40;;
49812;SDS011;35706;52.100;5.056;2023-08-24T00:55:30;0.98;;;0.30;;
49812;SDS011;35706;52.100;5.056;2023-08-24T00:56:32;1.00;;;0.30;;
49812;SDS011;35706;52.100;5.056;2023-08-24T00:57:32;2.35;;;0.30;;
49812;SDS011;35706;52.100;5.056;2023-08-24T00:58:33;2.15;;;0.30;;
49812;SDS011;35706;52.100;5.056;2023-08-24T00:59:34;4.20;;;0.50;;
49812;SDS011;35706;52.100;5.056;2023-08-24T01:00:35;1.52;;;0.30;;
49812;SDS011;35706;52.100;5.056;2023-08-24T01:01:36;1.45;;;0.30;;
49812;SDS011;35706;52.100;5.056;2023-08-24T01:02:39;1.67;;;0.30;;
49812;SDS011;35706;52.100;5.056;2023-08-24T01:03:39;0.80;;;0.30;;
49812;SDS011;35706;52.100;5.056;2023-08-24T01:04:43;0.75;;;0.30;;
49812;SDS011;35706;52.100;5.056;2023-08-24T01:05:44;2.53;;;0.32;;
49812;SDS011;35706;52.100;5.056;2023-08-24T01:06:45;3.35;;;0.30;;
49812;SDS011;35706;52.100;5.056;2023-08-24T01:07:45;3.42;;;0.30;;
49812;SDS011;35706;52.100;5.056;2023-08-24T01:08:46;1.63;;;0.47;;
49812;SDS011;35706;52.100;5.056;2023-08-24T01:09:47;2.05;;;0.30;;
49812;SDS011;35706;52.100;5.056;2023-08-24T01:10:57;0.70;;;0.30;;
49812;SDS011;35706;52.100;5.056;2023-08-24T01:13:09;1.83;;;0.30;;
49812;SDS011;35706;52.100;5.056;2023-08-24T01:15:01;2.88;;;0.40;;
49812;SDS011;35706;52.100;5.056;2023-08-24T01:15:51;1.42;;;0.38;;
49812;SDS011;35706;52.100;5.056;2023-08-24T01:16:58;1.45;;;0.40;;
49812;SDS011;35706;52.100;5.056;2023-08-24T01:18:04;3.42;;;0.40;;
49812;SDS011;35706;52.100;5.056;2023-08-24T01:19:11;3.28;;;0.40;;
49812;SDS011;35706;52.100;5.056;2023-08-24T01:20:22;3.85;;;0.40;;
49812;SDS011;35706;52.100;5.056;2023-08-24T01:21:23;1.38;;;0.35;;
49812;SDS011;35706;52.100;5.056;2023-08-24T01:22:37;2.92;;;0.40;;
49812;SDS011;35706;52.100;5.056;2023-08-24T01:23:49;2.83;;;0.40;;
49812;SDS011;35706;52.100;5.056;2023-08-24T01:25:03;2.55;;;0.40;;
49812;SDS011;35706;52.100;5.056;2023-08-24T01:26:17;1.15;;;0.40;;
49812;SDS011;35706;52.100;5.056;2023-08-24T01:27:19;2.67;;;0.35;;
49812;SDS011;35706;52.100;5.056;2023-08-24T01:28:21;2.10;;;0.40;;
49812;SDS011;35706;52.100;5.056;2023-08-24T01:29:22;2.42;;;0.45;;
49812;SDS011;35706;52.100;5.056;2023-08-24T01:30:23;0.93;;;0.30;;
49812;SDS011;35706;52.100;5.056;2023-08-24T01:31:24;1.70;;;0.50;;
49812;SDS011;35706;52.100;5.056;2023-08-24T01:32:24;1.70;;;0.40;;
49812;SDS011;35706;52.100;5.056;2023-08-24T01:33:25;2.03;;;0.40;;
49812;SDS011;35706;52.100;5.056;2023-08-24T01:34:25;1.38;;;0.40;;
49812;SDS011;35706;52.100;5.056;2023-08-24T01:35:26;1.98;;;0.50;;
49812;SDS011;35706;52.100;5.056;2023-08-24T01:36:26;3.83;;;0.50;;
49812;SDS011;35706;52.100;5.056;2023-08-24T01:37:26;1.33;;;0.40;;
49812;SDS011;35706;52.100;5.056;2023-08-24T01:38:27;1.58;;;0.35;;
49812;SDS011;35706;52.100;5.056;2023-08-24T01:39:29;1.38;;;0.40;;
49812;SDS011;35706;52.100;5.056;2023-08-24T01:42:00;3.53;;;0.40;;
49812;SDS011;35706;52.100;5.056;2023-08-24T01:43:03;1.67;;;0.60;;
49812;SDS011;35706;52.100;5.056;2023-08-24T01:44:06;2.97;;;0.50;;
49812;SDS011;35706;52.100;5.056;2023-08-24T01:45:08;0.98;;;0.40;;
49812;SDS011;35706;52.100;5.056;2023-08-24T01:46:11;2.08;;;0.40;;
49812;SDS011;35706;52.100;5.056;2023-08-24T01:47:14;1.58;;;0.40;;
49812;SDS011;35706;52.100;5.056;2023-08-24T01:48:16;1.88;;;0.40;;
49812;SDS011;35706;52.100;5.056;2023-08-24T01:49:17;1.20;;;0.50;;
49812;SDS011;35706;52.100;5.056;2023-08-24T01:50:18;1.45;;;0.50;;
49812;SDS011;35706;52.100;5.056;2023-08-24T01:51:19;2.72;;;0.40;;
49812;SDS011;35706;52.100;5.056;2023-08-24T01:52:19;1.00;;;0.40;;
49812;SDS011;35706;52.100;5.056;2023-08-24T01:53:21;2.08;;;0.50;;
49812;SDS011;35706;52.100;5.056;2023-08-24T01:54:22;3.72;;;0.50;;
49812;SDS011;35706;52.100;5.056;2023-08-24T01:55:22;1.63;;;0.40;;
49812;SDS011;35706;52.100;5.056;2023-08-24T01:56:23;2.33;;;0.50;;
49812;SDS011;35706;52.100;5.056;2023-08-24T01:57:24;1.70;;;0.50;;
49812;SDS011;35706;52.100;5.056;2023-08-24T01:58:24;3.15;;;0.40;;
49812;SDS011;35706;52.100;5.056;2023-08-24T01:59:25;1.15;;;0.50;;
49812;SDS011;35706;52.100;5.056;2023-08-24T02:00:25;1.45;;;0.40;;
49812;SDS011;35706;52.100;5.056;2023-08-24T02:01:25;1.70;;;0.52;;
49812;SDS011;35706;52.100;5.056;2023-08-24T02:02:25;1.65;;;0.50;;
49812;SDS011;35706;52.100;5.056;2023-08-24T02:03:26;1.67;;;0.50;;
49812;SDS011;35706;52.100;5.056;2023-08-24T02:04:26;1.67;;;0.50;;
49812;SDS011;35706;52.100;5.056;2023-08-24T02:05:27;4.78;;;0.45;;
49812;SDS011;35706;52.100;5.056;2023-08-24T02:06:29;1.58;;;0.50;;
49812;SDS011;35706;52.100;5.056;2023-08-24T02:07:29;2.63;;;0.60;;
49812;SDS011;35706;52.100;5.056;2023-08-24T02:08:30;1.40;;;0.47;;
49812;SDS011;35706;52.100;5.056;2023-08-24T02:09:30;3.38;;;0.60;;
49812;SDS011;35706;52.100;5.056;2023-08-24T02:10:31;1.63;;;0.47;;
49812;SDS011;35706;52.100;5.056;2023-08-24T02:11:32;2.55;;;0.50;;
49812;SDS011;35706;52.100;5.056;2023-08-24T02:12:32;2.55;;;0.65;;
49812;SDS011;35706;52.100;5.056;2023-08-24T02:13:32;2.25;;;0.50;;
49812;SDS011;35706;52.100;5.056;2023-08-24T02:14:33;2.55;;;0.52;;
49812;SDS011;35706;52.100;5.056;2023-08-24T02:15:33;1.92;;;0.50;;
49812;SDS011;35706;52.100;5.056;2023-08-24T02:16:35;1.80;;;0.57;;
49812;SDS011;35706;52.100;5.056;2023-08-24T02:17:35;2.25;;;0.60;;
49812;SDS011;35706;52.100;5.056;2023-08-24T02:18:36;2.65;;;0.52;;
49812;SDS011;35706;52.100;5.056;2023-08-24T02:19:36;1.67;;;0.60;;
49812;SDS011;35706;52.100;5.056;2023-08-24T02:20:37;2.42;;;0.60;;
49812;SDS011;35706;52.100;5.056;2023-08-24T02:21:38;2.03;;;0.60;;
49812;SDS011;35706;52.100;5.056;2023-08-24T02:22:38;4.05;;;0.60;;
49812;SDS011;35706;52.100;5.056;2023-08-24T02:23:39;2.35;;;0.60;;
49812;SDS011;35706;52.100;5.056;2023-08-24T02:24:39;2.38;;;0.60;;
49812;SDS011;35706;52.100;5.056;2023-08-24T02:25:43;2.47;;;0.60;;
49812;SDS011;35706;52.100;5.056;2023-08-24T02:26:43;7.43;;;0.70;;
49812;SDS011;35706;52.100;5.056;2023-08-24T02:27:44;2.83;;;0.60;;
49812;SDS011;35706;52.100;5.056;2023-08-24T02:28:44;2.03;;;0.60;;
49812;SDS011;35706;52.100;5.056;2023-08-24T02:29:45;1.80;;;0.60;;
49812;SDS011;35706;52.100;5.056;2023-08-24T02:30:45;2.33;;;0.50;;
49812;SDS011;35706;52.100;5.056;2023-08-24T02:31:45;3.85;;;0.68;;
49812;SDS011;35706;52.100;5.056;2023-08-24T02:32:46;2.15;;;0.60;;
49812;SDS011;35706;52.100;5.056;2023-08-24T02:33:46;3.58;;;0.80;;
49812;SDS011;35706;52.100;5.056;2023-08-24T02:34:48;2.78;;;0.60;;
49812;SDS011;35706;52.100;5.056;2023-08-24T02:35:49;3.78;;;0.70;;
49812;SDS011;35706;52.100;5.056;2023-08-24T02:36:49;5.75;;;0.80;;
49812;SDS011;35706;52.100;5.056;2023-08-24T02:37:49;3.78;;;0.60;;
49812;SDS011;35706;52.100;5.056;2023-08-24T02:38:50;2.03;;;0.60;;
49812;SDS011;35706;52.100;5.056;2023-08-24T02:39:50;5.28;;;0.70;;
49812;SDS011;35706;52.100;5.056;2023-08-24T02:40:59;2.65;;;0.50;;
49812;SDS011;35706;52.100;5.056;2023-08-24T02:42:01;1.40;;;0.50;;
49812;SDS011;35706;52.100;5.056;2023-08-24T02:43:02;2.08;;;0.70;;
49812;SDS011;35706;52.100;5.056;2023-08-24T02:44:03;3.20;;;0.60;;
49812;SDS011;35706;52.100;5.056;2023-08-24T02:45:03;3.58;;;0.70;;
49812;SDS011;35706;52.100;5.056;2023-08-24T02:46:05;2.35;;;0.65;;
49812;SDS011;35706;52.100;5.056;2023-08-24T02:47:07;3.35;;;0.60;;
49812;SDS011;35706;52.100;5.056;2023-08-24T02:48:07;2.40;;;0.63;;
49812;SDS011;35706;52.100;5.056;2023-08-24T02:49:07;1.42;;;0.60;;
49812;SDS011;35706;52.100;5.056;2023-08-24T02:50:08;1.40;;;0.50;;
49812;SDS011;35706;52.100;5.056;2023-08-24T02:51:08;2.17;;;0.60;;
49812;SDS011;35706;52.100;5.056;2023-08-24T02:52:10;2.75;;;0.70;;
49812;SDS011;35706;52.100;5.056;2023-08-24T02:53:10;1.83;;;0.70;;
49812;SDS011;35706;52.100;5.056;2023-08-24T02:54:10;3.53;;;0.70;;
49812;SDS011;35706;52.100;5.056;2023-08-24T02:55:11;7.88;;;1.13;;
49812;SDS011;35706;52.100;5.056;2023-08-24T02:56:11;1.90;;;0.70;;
49812;SDS011;35706;52.100;5.056;2023-08-24T02:57:11;3.47;;;0.80;;
49812;SDS011;35706;52.100;5.056;2023-08-24T02:58:12;2.85;;;0.70;;
49812;SDS011;35706;52.100;5.056;2023-08-24T02:59:12;2.88;;;0.90;;
49812;SDS011;35706;52.100;5.056;2023-08-24T03:00:13;2.30;;;0.80;;
49812;SDS011;35706;52.100;5.056;2023-08-24T03:01:13;3.83;;;0.98;;
49812;SDS011;35706;52.100;5.056;2023-08-24T03:02:14;3.50;;;0.80;;
49812;SDS011;35706;52.100;5.056;2023-08-24T03:03:14;3.75;;;0.90;;
49812;SDS011;35706;52.100;5.056;2023-08-24T03:04:15;1.50;;;0.70;;
49812;SDS011;35706;52.100;5.056;2023-08-24T03:05:15;1.95;;;0.70;;
49812;SDS011;35706;52.100;5.056;2023-08-24T03:06:16;4.78;;;0.73;;
49812;SDS011;35706;52.100;5.056;2023-08-24T03:07:16;1.90;;;0.70;;
49812;SDS011;35706;52.100;5.056;2023-08-24T03:08:16;4.13;;;0.80;;
49812;SDS011;35706;52.100;5.056;2023-08-24T03:09:16;2.38;;;0.80;;
49812;SDS011;35706;52.100;5.056;2023-08-24T03:10:17;4.50;;;0.90;;
49812;SDS011;35706;52.100;5.056;2023-08-24T03:11:17;5.05;;;0.70;;
49812;SDS011;35706;52.100;5.056;2023-08-24T03:12:18;2.47;;;0.85;;
49812;SDS011;35706;52.100;5.056;2023-08-24T03:13:18;3.13;;;0.80;;
49812;SDS011;35706;52.100;5.056;2023-08-24T03:14:19;2.13;;;0.93;;
49812;SDS011;35706;52.100;5.056;2023-08-24T03:15:19;4.07;;;0.93;;
49812;SDS011;35706;52.100;5.056;2023-08-24T03:16:21;3.20;;;1.10;;
49812;SDS011;35706;52.100;5.056;2023-08-24T03:17:21;3.70;;;0.90;;
49812;SDS011;35706;52.100;5.056;2023-08-24T03:18:23;1.98;;;0.73;;
49812;SDS011;35706;52.100;5.056;2023-08-24T03:19:23;2.60;;;0.80;;
49812;SDS011;35706;52.100;5.056;2023-08-24T03:20:23;2.65;;;0.75;;
49812;SDS011;35706;52.100;5.056;2023-08-24T03:21:24;5.18;;;1.35;;
49812;SDS011;35706;52.100;5.056;2023-08-24T03:22:24;4.80;;;0.95;;
49812;SDS011;35706;52.100;5.056;2023-08-24T03:23:24;5.35;;;1.40;;
49812;SDS011;35706;52.100;5.056;2023-08-24T03:24:25;3.30;;;1.10;;
49812;SDS011;35706;52.100;5.056;2023-08-24T03:25:25;3.10;;;1.23;;
49812;SDS011;35706;52.100;5.056;2023-08-24T03:26:26;2.78;;;1.42;;
49812;SDS011;35706;52.100;5.056;2023-08-24T03:27:26;3.85;;;1.02;;
49812;SDS011;35706;52.100;5.056;2023-08-24T03:28:26;4.57;;;1.40;;
49812;SDS011;35706;52.100;5.056;2023-08-24T03:29:27;3.00;;;1.05;;
49812;SDS011;35706;52.100;5.056;2023-08-24T03:30:28;3.17;;;1.55;;
49812;SDS011;35706;52.100;5.056;2023-08-24T03:31:28;4.75;;;0.90;;
49812;SDS011;35706;52.100;5.056;2023-08-24T03:32:29;3.25;;;1.00;;
49812;SDS011;35706;52.100;5.056;2023-08-24T03:33:29;4.40;;;2.00;;
49812;SDS011;35706;52.100;5.056;2023-08-24T03:34:30;5.28;;;1.00;;
49812;SDS011;35706;52.100;5.056;2023-08-24T03:35:31;4.45;;;0.88;;
49812;SDS011;35706;52.100;5.056;2023-08-24T03:36:32;3.03;;;0.90;;
49812;SDS011;35706;52.100;5.056;2023-08-24T03:37:33;2.38;;;1.02;;
49812;SDS011;35706;52.100;5.056;2023-08-24T03:38:33;2.78;;;0.90;;
49812;SDS011;35706;52.100;5.056;2023-08-24T03:39:36;5.93;;;1.20;;
49812;SDS011;35706;52.100;5.056;2023-08-24T03:40:37;7.53;;;1.77;;
49812;SDS011;35706;52.100;5.056;2023-08-24T03:41:37;3.85;;;1.40;;
49812;SDS011;35706;52.100;5.056;2023-08-24T03:42:37;4.40;;;1.50;;
49812;SDS011;35706;52.100;5.056;2023-08-24T03:43:38;4.30;;;1.10;;
49812;SDS011;35706;52.100;5.056;2023-08-24T03:44:38;4.25;;;1.10;;
49812;SDS011;35706;52.100;5.056;2023-08-24T03:45:39;2.83;;;1.30;;
49812;SDS011;35706;52.100;5.056;2023-08-24T03:46:39;3.47;;;1.00;;
49812;SDS011;35706;52.100;5.056;2023-08-24T03:47:39;3.08;;;1.20;;
49812;SDS011;35706;52.100;5.056;2023-08-24T03:48:40;4.40;;;1.02;;
49812;SDS011;35706;52.100;5.056;2023-08-24T03:49:43;2.85;;;1.20;;
49812;SDS011;35706;52.100;5.056;2023-08-24T03:50:44;2.90;;;1.00;;
49812;SDS011;35706;52.100;5.056;2023-08-24T03:51:44;4.15;;;0.90;;
49812;SDS011;35706;52.100;5.056;2023-08-24T03:52:44;2.70;;;0.82;;
49812;SDS011;35706;52.100;5.056;2023-08-24T03:53:45;3.63;;;1.00;;
49812;SDS011;35706;52.100;5.056;2023-08-24T03:54:45;4.10;;;1.10;;
49812;SDS011;35706;52.100;5.056;2023-08-24T03:55:48;3.45;;;0.80;;
49812;SDS011;35706;52.100;5.056;2023-08-24T03:56:49;2.55;;;1.05;;
49812;SDS011;35706;52.100;5.056;2023-08-24T03:57:50;4.22;;;1.40;;
49812;SDS011;35706;52.100;5.056;2023-08-24T03:58:50;2.33;;;0.90;;
49812;SDS011;35706;52.100;5.056;2023-08-24T03:59:50;3.50;;;0.90;;
49812;SDS011;35706;52.100;5.056;2023-08-24T04:00:51;2.78;;;1.02;;
49812;SDS011;35706;52.100;5.056;2023-08-24T04:01:51;4.10;;;1.27;;
49812;SDS011;35706;52.100;5.056;2023-08-24T04:02:52;8.15;;;1.60;;
49812;SDS011;35706;52.100;5.056;2023-08-24T04:03:52;7.05;;;1.60;;
49812;SDS011;35706;52.100;5.056;2023-08-24T04:04:52;2.90;;;1.00;;
49812;SDS011;35706;52.100;5.056;2023-08-24T04:05:53;3.58;;;1.50;;
49812;SDS011;35706;52.100;5.056;2023-08-24T04:06:53;1.70;;;1.25;;
49812;SDS011;35706;52.100;5.056;2023-08-24T04:07:53;4.22;;;1.20;;
49812;SDS011;35706;52.100;5.056;2023-08-24T04:08:54;2.08;;;1.10;;
49812;SDS011;35706;52.100;5.056;2023-08-24T04:09:54;3.45;;;0.80;;
49812;SDS011;35706;52.100;5.056;2023-08-24T04:10:54;2.33;;;1.20;;
49812;SDS011;35706;52.100;5.056;2023-08-24T04:11:55;5.78;;;1.40;;
49812;SDS011;35706;52.100;5.056;2023-08-24T04:12:55;4.00;;;1.33;;
49812;SDS011;35706;52.100;5.056;2023-08-24T04:13:55;4.05;;;1.10;;
49812;SDS011;35706;52.100;5.056;2023-08-24T04:14:56;5.35;;;1.45;;
49812;SDS011;35706;52.100;5.056;2023-08-24T04:15:57;3.92;;;1.20;;
49812;SDS011;35706;52.100;5.056;2023-08-24T04:16:58;4.15;;;1.20;;
49812;SDS011;35706;52.100;5.056;2023-08-24T04:17:58;4.47;;;1.13;;
49812;SDS011;35706;52.100;5.056;2023-08-24T04:18:59;5.90;;;1.27;;
49812;SDS011;35706;52.100;5.056;2023-08-24T04:19:59;3.10;;;0.80;;
49812;SDS011;35706;52.100;5.056;2023-08-24T04:20:59;5.72;;;1.50;;
49812;SDS011;35706;52.100;5.056;2023-08-24T04:22:00;2.97;;;1.77;;
49812;SDS011;35706;52.100;5.056;2023-08-24T04:23:01;3.70;;;1.83;;
49812;SDS011;35706;52.100;5.056;2023-08-24T04:24:02;2.58;;;0.80;;
49812;SDS011;35706;52.100;5.056;2023-08-24T04:25:03;4.00;;;1.58;;
49812;SDS011;35706;52.100;5.056;2023-08-24T04:26:04;3.55;;;1.95;;
49812;SDS011;35706;52.100;5.056;2023-08-24T04:27:05;6.82;;;1.40;;
49812;SDS011;35706;52.100;5.056;2023-08-24T04:28:05;3.00;;;1.38;;
49812;SDS011;35706;52.100;5.056;2023-08-24T04:29:05;2.35;;;1.00;;
49812;SDS011;35706;52.100;5.056;2023-08-24T04:30:06;1.95;;;1.15;;
49812;SDS011;35706;52.100;5.056;2023-08-24T04:31:11;3.25;;;0.88;;
49812;SDS011;35706;52.100;5.056;2023-08-24T04:32:11;3.00;;;1.20;;
49812;SDS011;35706;52.100;5.056;2023-08-24T04:33:12;2.92;;;1.00;;
49812;SDS011;35706;52.100;5.056;2023-08-24T04:34:12;2.90;;;1.17;;
49812;SDS011;35706;52.100;5.056;2023-08-24T04:35:12;4.47;;;1.00;;
49812;SDS011;35706;52.100;5.056;2023-08-24T04:36:13;8.73;;;1.95;;
49812;SDS011;35706;52.100;5.056;2023-08-24T04:37:13;2.97;;;1.40;;
49812;SDS011;35706;52.100;5.056;2023-08-24T04:38:13;3.92;;;1.27;;
49812;SDS011;35706;52.100;5.056;2023-08-24T04:39:14;3.40;;;1.20;;
49812;SDS011;35706;52.100;5.056;2023-08-24T04:40:14;5.28;;;0.90;;
49812;SDS011;35706;52.100;5.056;2023-08-24T04:41:14;2.15;;;1.30;;
49812;SDS011;35706;52.100;5.056;2023-08-24T04:42:15;1.33;;;0.80;;
49812;SDS011;35706;52.100;5.056;2023-08-24T04:43:15;3.65;;;1.05;;
49812;SDS011;35706;52.100;5.056;2023-08-24T04:44:16;2.72;;;1.48;;
49812;SDS011;35706;52.100;5.056;2023-08-24T04:45:16;4.10;;;1.45;;
49812;SDS011;35706;52.100;5.056;2023-08-24T04:46:16;3.00;;;1.85;;
49812;SDS011;35706;52.100;5.056;2023-08-24T04:47:17;3.85;;;1.48;;
49812;SDS011;35706;52.100;5.056;2023-08-24T04:48:17;5.70;;;1.05;;
49812;SDS011;35706;52.100;5.056;2023-08-24T04:49:21;4.22;;;1.60;;
49812;SDS011;35706;52.100;5.056;2023-08-24T04:50:21;5.10;;;1.08;;
49812;SDS011;35706;52.100;5.056;2023-08-24T04:51:21;4.82;;;1.30;;
49812;SDS011;35706;52.100;5.056;2023-08-24T04:52:22;2.70;;;1.38;;
49812;SDS011;35706;52.100;5.056;2023-08-24T04:53:22;5.30;;;1.38;;
49812;SDS011;35706;52.100;5.056;2023-08-24T04:54:22;3.15;;;1.52;;
49812;SDS011;35706;52.100;5.056;2023-08-24T04:55:23;9.30;;;1.50;;
49812;SDS011;35706;52.100;5.056;2023-08-24T04:56:23;5.28;;;1.95;;
49812;SDS011;35706;52.100;5.056;2023-08-24T04:57:23;4.25;;;1.60;;
49812;SDS011;35706;52.100;5.056;2023-08-24T04:58:24;3.42;;;1.40;;
49812;SDS011;35706;52.100;5.056;2023-08-24T04:59:25;2.88;;;1.20;;
49812;SDS011;35706;52.100;5.056;2023-08-24T05:00:25;4.38;;;1.65;;
49812;SDS011;35706;52.100;5.056;2023-08-24T05:01:28;6.18;;;1.90;;
49812;SDS011;35706;52.100;5.056;2023-08-24T05:02:31;2.85;;;1.02;;
49812;SDS011;35706;52.100;5.056;2023-08-24T05:03:31;4.57;;;1.27;;
49812;SDS011;35706;52.100;5.056;2023-08-24T05:04:32;3.85;;;1.10;;
49812;SDS011;35706;52.100;5.056;2023-08-24T05:05:33;7.25;;;1.85;;
49812;SDS011;35706;52.100;5.056;2023-08-24T05:06:34;3.42;;;1.30;;
49812;SDS011;35706;52.100;5.056;2023-08-24T05:07:34;4.47;;;1.33;;
49812;SDS011;35706;52.100;5.056;2023-08-24T05:08:34;2.08;;;1.20;;
49812;SDS011;35706;52.100;5.056;2023-08-24T05:09:35;2.33;;;1.20;;
49812;SDS011;35706;52.100;5.056;2023-08-24T05:10:35;2.78;;;1.50;;
49812;SDS011;35706;52.100;5.056;2023-08-24T05:11:36;2.30;;;1.23;;
49812;SDS011;35706;52.100;5.056;2023-08-24T05:12:36;7.63;;;1.55;;
49812;SDS011;35706;52.100;5.056;2023-08-24T05:13:37;3.08;;;1.58;;
49812;SDS011;35706;52.100;5.056;2023-08-24T05:14:37;4.93;;;1.55;;
49812;SDS011;35706;52.100;5.056;2023-08-24T05:15:37;4.85;;;1.15;;
49812;SDS011;35706;52.100;5.056;2023-08-24T05:16:37;3.92;;;2.03;;
49812;SDS011;35706;52.100;5.056;2023-08-24T05:17:38;11.43;;;1.70;;
49812;SDS011;35706;52.100;5.056;2023-08-24T05:18:38;4.25;;;2.15;;
49812;SDS011;35706;52.100;5.056;2023-08-24T05:19:40;4.80;;;1.88;;
49812;SDS011;35706;52.100;5.056;2023-08-24T05:20:40;3.55;;;1.85;;
49812;SDS011;35706;52.100;5.056;2023-08-24T05:21:41;3.70;;;1.33;;
49812;SDS011;35706;52.100;5.056;2023-08-24T05:22:41;5.47;;;1.50;;
49812;SDS011;35706;52.100;5.056;2023-08-24T05:23:41;4.00;;;1.20;;
49812;SDS011;35706;52.100;5.056;2023-08-24T05:24:42;2.92;;;1.13;;
49812;SDS011;35706;52.100;5.056;2023-08-24T05:25:42;5.88;;;1.50;;
49812;SDS011;35706;52.100;5.056;2023-08-24T05:26:42;3.05;;;1.55;;
49812;SDS011;35706;52.100;5.056;2023-08-24T05:27:42;5.32;;;1.83;;
49812;SDS011;35706;52.100;5.056;2023-08-24T05:28:43;4.97;;;1.55;;
49812;SDS011;35706;52.100;5.056;2023-08-24T05:29:43;4.32;;;2.20;;
49812;SDS011;35706;52.100;5.056;2023-08-24T05:30:44;5.90;;;1.33;;
49812;SDS011;35706;52.100;5.056;2023-08-24T05:31:44;4.72;;;1.35;;
49812;SDS011;35706;52.100;5.056;2023-08-24T05:32:44;3.30;;;1.80;;
49812;SDS011;35706;52.100;5.056;2023-08-24T05:33:45;3.78;;;1.70;;
49812;SDS011;35706;52.100;5.056;2023-08-24T05:34:45;3.38;;;1.63;;
49812;SDS011;35706;52.100;5.056;2023-08-24T05:35:46;4.70;;;1.48;;
49812;SDS011;35706;52.100;5.056;2023-08-24T05:36:47;5.30;;;1.13;;
49812;SDS011;35706;52.100;5.056;2023-08-24T05:37:47;3.97;;;1.58;;
49812;SDS011;35706;52.100;5.056;2023-08-24T05:38:47;4.93;;;1.40;;
49812;SDS011;35706;52.100;5.056;2023-08-24T05:39:48;3.88;;;1.30;;
49812;SDS011;35706;52.100;5.056;2023-08-24T05:40:48;4.50;;;1.30;;
49812;SDS011;35706;52.100;5.056;2023-08-24T05:41:50;3.65;;;2.03;;
49812;SDS011;35706;52.100;5.056;2023-08-24T05:42:52;6.10;;;1.88;;
49812;SDS011;35706;52.100;5.056;2023-08-24T05:43:53;4.05;;;1.33;;
49812;SDS011;35706;52.100;5.056;2023-08-24T05:44:53;5.25;;;1.55;;
49812;SDS011;35706;52.100;5.056;2023-08-24T05:45:54;4.80;;;1.60;;
49812;SDS011;35706;52.100;5.056;2023-08-24T05:46:56;6.70;;;1.70;;
49812;SDS011;35706;52.100;5.056;2023-08-24T05:47:56;4.82;;;1.73;;
49812;SDS011;35706;52.100;5.056;2023-08-24T05:48:57;7.88;;;3.10;;
49812;SDS011;35706;52.100;5.056;2023-08-24T05:49:58;7.55;;;3.45;;
49812;SDS011;35706;52.100;5.056;2023-08-24T05:50:58;3.85;;;1.58;;
49812;SDS011;35706;52.100;5.056;2023-08-24T05:51:59;7.32;;;3.53;;
49812;SDS011;35706;52.100;5.056;2023-08-24T05:52:59;6.80;;;3.67;;
49812;SDS011;35706;52.100;5.056;2023-08-24T05:54:00;4.97;;;1.42;;
49812;SDS011;35706;52.100;5.056;2023-08-24T05:55:01;6.53;;;2.58;;
49812;SDS011;35706;52.100;5.056;2023-08-24T05:56:01;9.30;;;2.85;;
49812;SDS011;35706;52.100;5.056;2023-08-24T05:57:02;4.28;;;2.80;;
49812;SDS011;35706;52.100;5.056;2023-08-24T05:58:03;7.13;;;2.20;;
49812;SDS011;35706;52.100;5.056;2023-08-24T05:59:04;9.00;;;2.42;;
49812;SDS011;35706;52.100;5.056;2023-08-24T06:00:05;6.15;;;2.03;;
49812;SDS011;35706;52.100;5.056;2023-08-24T06:01:11;5.15;;;1.83;;
49812;SDS011;35706;52.100;5.056;2023-08-24T06:02:14;4.55;;;2.50;;
49812;SDS011;35706;52.100;5.056;2023-08-24T06:03:15;3.25;;;1.10;;
49812;SDS011;35706;52.100;5.056;2023-08-24T06:04:15;8.85;;;1.70;;
49812;SDS011;35706;52.100;5.056;2023-08-24T06:05:16;7.18;;;2.30;;
49812;SDS011;35706;52.100;5.056;2023-08-24T06:06:18;3.45;;;1.55;;
49812;SDS011;35706;52.100;5.056;2023-08-24T06:07:18;4.88;;;1.98;;
49812;SDS011;35706;52.100;5.056;2023-08-24T06:08:18;4.47;;;2.28;;
49812;SDS011;35706;52.100;5.056;2023-08-24T06:09:19;6.47;;;1.65;;
49812;SDS011;35706;52.100;5.056;2023-08-24T06:10:19;5.05;;;2.03;;
49812;SDS011;35706;52.100;5.056;2023-08-24T06:11:20;3.72;;;1.05;;